Time;durP1;ratioP1;P1;durP2;ratioP2;P2;SDS_P1;SDS_P2;PMS_P1;PMS_P2;Temp;Humidity;BMP_temperature;BMP_pressure;BME280_temperature;BME280_humidity;BME280_pressure;Samples;Min_cycle;Max_cycle;Signal;HPM_P1;HPM_P2
2022/01/22 00:01:47;;;;;;;36.80;4.63;;;;;;;;;;5114114;28;20014;-70
2022/01/22 00:04:13;;;;;;;;;;;;;;;;;;5115055;28;20039;-70
2022/01/22 00:06:39;;;;;;;34.92;4.65;;;;;;;;;;5112640;28;20394;-71
2022/01/22 00:09:06;;;;;;;35.80;4.75;;;;;;;;;;5115249;28;20048;-70
2022/01/22 00:11:39;;;;;;;37.85;5.40;;;;;;;;;;5114486;28;20086;-72
2022/01/22 00:14:24;;;;;;;34.58;4.68;;;;;;;;;;5115105;28;20104;-71
2022/01/22 00:16:55;;;;;;;39.15;5.45;;;;;;;;;;5096362;28;20055;-71
2022/01/22 00:19:21;;;;;;;21.83;3.58;;;;;;;;;;5114424;28;20086;-72
2022/01/22 00:21:47;;;;;;;;;;;;;;;;;;5114739;28;20043;-72
2022/01/22 00:24:14;;;;;;;26.25;3.92;;;;;;;;;;5096833;28;20049;-70
2022/01/22 00:26:40;;;;;;;;;;;;;;;;;;5115192;28;20097;-69
2022/01/22 00:29:06;;;;;;;28.02;4.43;;;;;;;;;;5114005;28;19923;-70
2022/01/22 00:31:32;;;;;;;31.63;4.05;;;;;;;;;;5114760;28;20054;-73
2022/01/22 00:33:58;;;;;;;31.63;4.82;;;;;;;;;;5114339;28;20040;-73
2022/01/22 00:36:24;;;;;;;44.70;6.18;;;;;;;;;;5095950;28;20062;-72
2022/01/22 00:38:50;;;;;;;36.17;4.85;;;;;;;;;;5095819;28;20044;-72
2022/01/22 00:41:16;;;;;;;40.72;5.40;;;;;;;;;;5113999;28;20055;-71
2022/01/22 00:43:45;;;;;;;38.85;6.22;;;;;;;;;;5113986;28;20075;-72
2022/01/22 00:46:12;;;;;;;31.25;4.60;;;;;;;;;;5114379;28;20106;-72
2022/01/22 00:48:38;;;;;;;36.25;4.60;;;;;;;;;;5113992;28;20131;-71
2022/01/22 00:51:04;;;;;;;29.88;5.35;;;;;;;;;;5113902;28;20047;-72
2022/01/22 00:53:32;;;;;;;41.28;5.03;;;;;;;;;;5113897;28;20101;-73
2022/01/22 00:55:58;;;;;;;29.33;4.60;;;;;;;;;;5113752;28;20048;-73
2022/01/22 00:58:24;;;;;;;22.75;4.45;;;;;;;;;;5113830;28;20047;-73
2022/01/22 01:00:50;;;;;;;23.15;4.25;;;;;;;;;;5095702;28;20498;-72
2022/01/22 01:03:16;;;;;;;21.63;3.92;;;;;;;;;;5113725;28;20051;-74
2022/01/22 01:05:42;;;;;;;14.23;2.60;;;;;;;;;;5113361;28;20495;-73
2022/01/22 01:08:08;;;;;;;19.23;3.55;;;;;;;;;;5113692;28;20082;-72
2022/01/22 01:10:34;;;;;;;25.85;4.32;;;;;;;;;;5113727;28;20047;-75
2022/01/22 01:13:00;;;;;;;26.17;4.00;;;;;;;;;;5095779;28;20043;-75
2022/01/22 01:15:53;;;;;;;15.32;3.63;;;;;;;;;;5113450;28;20043;-74
2022/01/22 01:34:41;;;;;;;19.10;3.58;;;;;;;;;;5120495;28;20051;-75
2022/01/22 01:37:07;;;;;;;26.25;3.85;;;;;;;;;;5120252;28;20063;-71
2022/01/22 01:39:36;;;;;;;25.77;3.58;;;;;;;;;;5120561;28;20058;-74
2022/01/22 01:42:07;;;;;;;20.52;3.25;;;;;;;;;;5136258;27;20116;-75
2022/01/22 01:44:33;;;;;;;16.45;2.80;;;;;;;;;;5136323;27;20103;-71
2022/01/22 01:47:01;;;;;;;17.65;3.03;;;;;;;;;;5120134;28;20125;-73
2022/01/22 01:49:27;;;;;;;14.85;2.95;;;;;;;;;;5120093;28;20043;-71
2022/01/22 01:51:56;;;;;;;17.13;3.17;;;;;;;;;;5120061;28;20131;-72
2022/01/22 01:54:46;;;;;;;15.65;2.45;;;;;;;;;;5120007;28;20468;-75
2022/01/22 01:59:57;;;;;;;18.50;3.00;;;;;;;;;;5119685;28;20063;-71
2022/01/22 02:02:26;;;;;;;19.30;2.92;;;;;;;;;;5120503;28;20062;-70
2022/01/22 02:04:52;;;;;;;22.27;3.50;;;;;;;;;;5119739;28;20043;-70
2022/01/22 02:07:18;;;;;;;18.40;3.53;;;;;;;;;;5119702;28;20050;-70
2022/01/22 02:09:44;;;;;;;19.75;3.92;;;;;;;;;;5120203;28;20043;-70
2022/01/22 02:12:35;;;;;;;14.45;2.58;;;;;;;;;;5135480;27;20051;-68
2022/01/22 02:26:00;;;;;;;23.02;4.57;;;;;;;;;;5119860;28;20047;-71
2022/01/22 02:28:27;;;;;;;13.55;2.63;;;;;;;;;;5114148;28;20060;-69
2022/01/22 02:31:00;;;;;;;22.50;3.70;;;;;;;;;;5115398;28;20066;-70
2022/01/22 02:33:37;;;;;;;22.80;3.22;;;;;;;;;;5116931;28;20047;-71
2022/01/22 02:36:17;;;;;;;22.83;3.60;;;;;;;;;;5116731;28;20484;-72
2022/01/22 02:41:26;;;;;;;19.17;2.90;;;;;;;;;;5116227;28;20201;-72
2022/01/22 02:43:54;;;;;;;17.35;3.55;;;;;;;;;;5116712;28;20163;-71
2022/01/22 02:46:27;;;;;;;17.00;3.25;;;;;;;;;;5132112;27;20398;-71
2022/01/22 02:48:54;;;;;;;19.83;3.75;;;;;;;;;;5116460;28;20044;-72
2022/01/22 02:51:21;;;;;;;19.48;3.60;;;;;;;;;;5116039;28;20099;-72
2022/01/22 02:53:49;;;;;;;19.55;3.30;;;;;;;;;;5116027;28;20070;-71
2022/01/22 02:56:15;;;;;;;21.05;3.10;;;;;;;;;;5116701;28;20087;-71
2022/01/22 02:58:42;;;;;;;15.63;3.10;;;;;;;;;;5115953;28;20040;-68
2022/01/22 03:01:08;;;;;;;17.55;3.33;;;;;;;;;;5115895;28;20085;-72
2022/01/22 03:03:34;;;;;;;20.02;3.63;;;;;;;;;;5098263;28;20057;-71
2022/01/22 03:06:01;;;;;;;13.75;2.40;;;;;;;;;;5115822;28;20047;-80
2022/01/22 03:08:29;;;;;;;18.35;3.15;;;;;;;;;;5115713;28;20122;-72
2022/01/22 03:10:56;;;;;;;17.38;3.08;;;;;;;;;;5115726;28;20089;-71
2022/01/22 03:18:52;;;;;;;17.15;2.85;;;;;;;;;;5115236;28;19985;-73
2022/01/22 03:29:19;;;;;;;27.20;3.38;;;;;;;;;;5115487;28;20109;-74
2022/01/22 03:31:45;;;;;;;13.20;2.80;;;;;;;;;;5097071;28;20055;-71
2022/01/22 03:34:11;;;;;;;18.40;3.63;;;;;;;;;;5096801;28;20134;-73
2022/01/22 03:36:38;;;;;;;17.52;3.25;;;;;;;;;;5097039;28;20147;-75
2022/01/22 03:39:05;;;;;;;16.20;3.10;;;;;;;;;;5115729;28;20047;-72
2022/01/22 03:41:31;;;;;;;17.27;3.63;;;;;;;;;;5115643;28;20112;-75
2022/01/22 03:43:58;;;;;;;26.33;3.72;;;;;;;;;;5096870;28;20104;-76
2022/01/22 03:46:24;;;;;;;13.52;2.72;;;;;;;;;;5114936;28;20088;-72
2022/01/22 03:48:50;;;;;;;17.05;3.08;;;;;;;;;;5115000;28;20055;-72
2022/01/22 03:51:17;;;;;;;17.48;2.95;;;;;;;;;;5114910;28;20506;-81
2022/01/22 03:53:43;;;;;;;19.75;3.17;;;;;;;;;;5113773;28;20044;-74
2022/01/22 03:56:10;;;;;;;;;;;;;;;;;;5115207;28;20052;-73
2022/01/22 03:58:45;;;;;;;19.30;3.10;;;;;;;;;;5114909;28;20053;-69
2022/01/22 04:04:00;;;;;;;19.02;3.35;;;;;;;;;;5114853;28;20050;-69
2022/01/22 04:09:01;;;;;;;19.65;3.58;;;;;;;;;;5130769;27;20149;-72
2022/01/22 04:11:27;;;;;;;20.65;3.40;;;;;;;;;;5114986;28;20051;-74
2022/01/22 04:13:59;;;;;;;23.15;3.88;;;;;;;;;;5114763;28;20044;-74
2022/01/22 04:16:27;;;;;;;24.58;4.53;;;;;;;;;;5115012;28;20054;-74
2022/01/22 04:27:13;;;;;;;17.10;3.00;;;;;;;;;;5114784;28;20055;-74
2022/01/22 04:29:39;;;;;;;14.57;2.83;;;;;;;;;;5117807;27;20503;-70
2022/01/22 04:32:06;;;;;;;18.00;2.97;;;;;;;;;;5073818;28;20093;-72
2022/01/22 04:34:32;;;;;;;;;;;;;;;;;;5073829;28;20036;-71
2022/01/22 04:36:58;;;;;;;18.42;2.83;;;;;;;;;;5073512;28;19920;-73
2022/01/22 04:39:26;;;;;;;16.63;2.53;;;;;;;;;;5072254;28;20055;-73
2022/01/22 04:41:55;;;;;;;10.70;2.03;;;;;;;;;;5073485;28;20048;-73
2022/01/22 04:44:24;;;;;;;10.82;2.00;;;;;;;;;;5073425;28;20059;-74
2022/01/22 04:47:17;;;;;;;13.68;2.55;;;;;;;;;;5073395;28;20057;-73
2022/01/22 04:55:04;;;;;;;16.05;3.10;;;;;;;;;;5073469;28;20048;-75
2022/01/22 04:57:34;;;;;;;10.68;2.25;;;;;;;;;;5072373;28;20048;-70
2022/01/22 05:00:01;;;;;;;16.00;2.70;;;;;;;;;;5073171;28;20048;-71
2022/01/22 05:02:27;;;;;;;14.93;3.15;;;;;;;;;;5073166;28;20052;-74
2022/01/22 05:04:53;;;;;;;27.20;3.13;;;;;;;;;;5073766;28;20048;-71
2022/01/22 05:07:19;;;;;;;15.88;3.00;;;;;;;;;;5073127;28;20084;-74
2022/01/22 05:09:45;;;;;;;16.67;2.70;;;;;;;;;;5073304;28;20076;-72
2022/01/22 05:12:11;;;;;;;21.75;3.30;;;;;;;;;;5072912;28;20052;-72
2022/01/22 05:14:37;;;;;;;14.73;3.53;;;;;;;;;;5072893;28;20044;-74
2022/01/22 05:17:06;;;;;;;22.88;3.90;;;;;;;;;;5073605;28;20095;-72
2022/01/22 05:24:47;;;;;;;29.30;3.20;;;;;;;;;;5073166;28;20127;-71
2022/01/22 05:33:17;;;;;;;30.25;4.07;;;;;;;;;;5114134;28;20048;-73
2022/01/22 05:37:57;;;;;;;17.13;2.92;;;;;;;;;;5114137;28;20417;-71
2022/01/22 05:40:24;;;;;;;;;;;;;;;;;;5114511;28;20043;-74
2022/01/22 05:42:50;;;;;;;24.50;4.65;;;;;;;;;;5129256;28;20280;-71
2022/01/22 05:45:16;;;;;;;19.88;3.13;;;;;;;;;;5095228;28;20051;-72
2022/01/22 05:47:44;;;;;;;17.63;3.33;;;;;;;;;;5113702;28;20046;-70
2022/01/22 05:50:23;;;;;;;15.00;2.95;;;;;;;;;;5113220;28;20062;-71
2022/01/22 05:53:00;;;;;;;16.92;2.95;;;;;;;;;;5113253;28;20131;-71
2022/01/22 06:00:40;;;;;;;20.60;3.85;;;;;;;;;;5113128;28;20058;-73
2022/01/22 06:03:06;;;;;;;18.42;3.10;;;;;;;;;;5113209;28;20082;-72
2022/01/22 06:05:32;;;;;;;17.58;3.05;;;;;;;;;;5115617;28;20040;-72
2022/01/22 06:07:58;;;;;;;22.48;4.20;;;;;;;;;;5117025;28;20134;-72
2022/01/22 06:10:29;;;;;;;26.10;3.67;;;;;;;;;;5116607;28;20104;-72
2022/01/22 06:13:17;;;;;;;21.70;4.13;;;;;;;;;;5117121;28;20056;-73
2022/01/22 06:15:43;;;;;;;26.52;4.38;;;;;;;;;;5116821;28;20112;-73
2022/01/22 06:18:10;;;;;;;24.90;3.63;;;;;;;;;;5116862;28;20483;-72
2022/01/22 06:20:36;;;;;;;28.25;4.18;;;;;;;;;;5116759;28;20105;-72
2022/01/22 06:23:03;;;;;;;22.00;3.58;;;;;;;;;;5117265;28;20047;-71
2022/01/22 06:25:29;;;;;;;21.15;3.70;;;;;;;;;;5116843;28;20040;-73
2022/01/22 06:27:55;;;;;;;;;;;;;;;;;;5117085;28;20550;-72
2022/01/22 06:30:21;;;;;;;19.70;3.72;;;;;;;;;;5116571;28;20041;-71
2022/01/22 06:32:47;;;;;;;18.50;3.30;;;;;;;;;;5098914;28;20047;-73
2022/01/22 06:35:14;;;;;;;16.40;3.63;;;;;;;;;;5116646;28;20083;-72
2022/01/22 06:37:40;;;;;;;17.75;3.22;;;;;;;;;;5116369;28;20130;-70
2022/01/22 06:42:33;;;;;;;14.95;3.28;;;;;;;;;;5117053;28;20085;-72
2022/01/22 06:45:00;;;;;;;20.40;2.80;;;;;;;;;;5116561;28;20495;-75
2022/01/22 06:47:26;;;;;;;15.52;2.90;;;;;;;;;;5099003;28;20173;-71
2022/01/22 06:49:52;;;;;;;;;;;;;;;;;;5117155;28;20051;-71
2022/01/22 06:52:18;;;;;;;15.93;3.03;;;;;;;;;;5116482;28;19926;-72
2022/01/22 06:54:45;;;;;;;16.55;3.22;;;;;;;;;;5116295;28;20048;-73
2022/01/22 06:57:11;;;;;;;20.83;3.05;;;;;;;;;;5117865;28;20455;-75
2022/01/22 06:59:38;;;;;;;11.43;3.05;;;;;;;;;;5116033;28;20047;-74
2022/01/22 07:02:04;;;;;;;20.42;2.90;;;;;;;;;;5097857;28;20499;-76
2022/01/22 07:04:31;;;;;;;14.68;3.25;;;;;;;;;;5116046;28;20039;-76
2022/01/22 07:06:58;;;;;;;18.45;3.20;;;;;;;;;;5116067;28;20051;-76
2022/01/22 07:09:24;;;;;;;16.48;3.45;;;;;;;;;;5116172;28;20062;-76
2022/01/22 07:11:50;;;;;;;13.20;3.05;;;;;;;;;;5115854;28;20084;-76
2022/01/22 07:14:17;;;;;;;24.33;3.80;;;;;;;;;;5115798;28;20057;-76
2022/01/22 07:16:43;;;;;;;13.23;3.10;;;;;;;;;;5115275;28;20201;-73
2022/01/22 07:19:09;;;;;;;14.40;3.38;;;;;;;;;;5097597;28;20055;-72
2022/01/22 07:21:37;;;;;;;14.68;3.38;;;;;;;;;;5115297;28;20483;-73
2022/01/22 07:24:23;;;;;;;15.93;3.45;;;;;;;;;;5116119;28;20069;-73
2022/01/22 07:26:49;;;;;;;17.13;3.95;;;;;;;;;;5115615;28;20047;-73
2022/01/22 07:29:16;;;;;;;20.10;3.92;;;;;;;;;;5104930;28;20079;-74
2022/01/22 07:31:42;;;;;;;18.92;3.80;;;;;;;;;;5074538;28;20058;-74
2022/01/22 07:34:08;;;;;;;18.48;4.18;;;;;;;;;;5074550;28;20090;-71
2022/01/22 07:36:34;;;;;;;19.92;3.60;;;;;;;;;;5056470;28;20041;-70
2022/01/22 07:39:01;;;;;;;20.25;3.60;;;;;;;;;;5072820;28;20441;-71
2022/01/22 07:41:27;;;;;;;;;;;;;;;;;;5074395;28;20048;-72
2022/01/22 07:43:53;;;;;;;18.73;3.70;;;;;;;;;;5072990;28;20023;-68
2022/01/22 07:46:19;;;;;;;19.23;3.67;;;;;;;;;;5072617;28;20514;-72
2022/01/22 07:48:45;;;;;;;15.82;3.50;;;;;;;;;;5073381;28;20127;-74
2022/01/22 07:51:12;;;;;;;18.45;3.58;;;;;;;;;;5071669;28;20496;-73
2022/01/22 07:53:39;;;;;;;14.55;3.78;;;;;;;;;;5072462;28;20044;-76
2022/01/22 07:56:05;;;;;;;16.00;3.72;;;;;;;;;;5073245;28;20048;-73
2022/01/22 07:58:31;;;;;;;19.35;3.88;;;;;;;;;;5054881;28;20131;-72
2022/01/22 08:00:57;;;;;;;17.05;3.65;;;;;;;;;;5072797;28;20056;-73
2022/01/22 08:03:26;;;;;;;14.38;3.28;;;;;;;;;;5072438;28;20051;-71
2022/01/22 08:05:52;;;;;;;11.40;3.15;;;;;;;;;;5072700;28;20052;-71
2022/01/22 08:08:18;;;;;;;14.15;3.30;;;;;;;;;;5072740;28;20109;-70
2022/01/22 08:10:44;;;;;;;16.73;3.00;;;;;;;;;;5072172;28;20051;-74
2022/01/22 08:13:11;;;;;;;13.65;3.10;;;;;;;;;;5072235;28;20044;-74
2022/01/22 08:15:37;;;;;;;15.77;3.40;;;;;;;;;;5072507;28;20092;-73
2022/01/22 08:18:05;;;;;;;17.25;4.18;;;;;;;;;;5072160;28;20058;-74
2022/01/22 08:20:31;;;;;;;12.93;3.40;;;;;;;;;;5072623;28;20052;-74
2022/01/22 08:22:57;;;;;;;13.93;3.00;;;;;;;;;;5072115;28;20097;-72
2022/01/22 08:25:23;;;;;;;10.73;2.53;;;;;;;;;;5071302;28;20417;-72
2022/01/22 08:30:32;;;;;;;15.63;2.90;;;;;;;;;;5104747;28;20060;-73
2022/01/22 08:35:53;;;;;;;16.45;2.95;;;;;;;;;;5112367;28;20063;-74
2022/01/22 08:38:21;;;;;;;18.85;3.40;;;;;;;;;;5112719;28;20130;-73
2022/01/22 08:40:47;;;;;;;19.10;3.50;;;;;;;;;;5112327;28;20515;-75
2022/01/22 08:43:13;;;;;;;15.93;3.28;;;;;;;;;;5112334;28;20130;-73
2022/01/22 08:45:40;;;;;;;18.98;3.38;;;;;;;;;;5112854;28;20081;-73
2022/01/22 08:48:06;;;;;;;10.52;2.30;;;;;;;;;;5112582;28;20043;-71
2022/01/22 08:50:34;;;;;;;10.82;2.40;;;;;;;;;;5112165;28;20146;-70
2022/01/22 08:53:00;;;;;;;15.50;2.63;;;;;;;;;;5112641;28;20046;-71
2022/01/22 08:55:26;;;;;;;17.88;2.65;;;;;;;;;;5112054;28;20040;-72
2022/01/22 08:57:52;;;;;;;14.27;3.17;;;;;;;;;;5112430;28;20050;-73
2022/01/22 09:00:20;;;;;;;15.55;3.38;;;;;;;;;;5112585;28;20043;-73
2022/01/22 09:02:46;;;;;;;13.50;2.72;;;;;;;;;;5111981;28;20055;-69
2022/01/22 09:05:16;;;;;;;;;;;;;;;;;;5128999;27;20056;-72
2022/01/22 09:07:43;;;;;;;17.65;2.95;;;;;;;;;;5093674;28;20337;-75
2022/01/22 09:10:09;;;;;;;11.38;2.47;;;;;;;;;;5112396;28;20074;-73
2022/01/22 09:12:35;;;;;;;12.65;2.70;;;;;;;;;;5112022;28;20044;-72
2022/01/22 09:15:01;;;;;;;14.95;2.97;;;;;;;;;;5111792;28;20192;-74
2022/01/22 09:17:27;;;;;;;12.77;2.67;;;;;;;;;;5111901;28;20044;-74
2022/01/22 09:19:58;;;;;;;18.63;3.53;;;;;;;;;;5111788;28;20051;-75
2022/01/22 09:22:26;;;;;;;17.35;3.10;;;;;;;;;;5094901;28;20067;-74
2022/01/22 09:24:52;;;;;;;20.70;3.08;;;;;;;;;;5111561;28;20047;-76
2022/01/22 09:27:19;;;;;;;17.17;3.20;;;;;;;;;;5112601;28;20336;-72
2022/01/22 09:29:47;;;;;;;18.55;3.22;;;;;;;;;;5111768;28;20063;-73
2022/01/22 09:32:14;;;;;;;21.48;3.15;;;;;;;;;;5094485;28;20100;-73
2022/01/22 09:34:40;;;;;;;16.83;3.03;;;;;;;;;;5111838;28;20105;-75
2022/01/22 09:37:06;;;;;;;12.00;3.20;;;;;;;;;;5112665;28;20051;-73
2022/01/22 09:39:32;;;;;;;21.48;4.05;;;;;;;;;;5113857;28;20501;-74
2022/01/22 09:41:59;;;;;;;15.88;3.65;;;;;;;;;;5115771;28;20422;-74
2022/01/22 09:44:25;;;;;;;;;;;;;;;;;;5116206;28;20035;-75
2022/01/22 09:46:51;;;;;;;23.88;3.72;;;;;;;;;;5116150;28;19927;-74
2022/01/22 09:49:17;;;;;;;17.98;4.07;;;;;;;;;;5115630;28;20087;-74
2022/01/22 09:51:44;;;;;;;18.58;3.80;;;;;;;;;;5097710;28;20051;-75
2022/01/22 09:54:12;;;;;;;22.35;4.32;;;;;;;;;;5115709;28;20048;-75
2022/01/22 09:56:40;;;;;;;19.90;4.57;;;;;;;;;;5131892;27;20051;-75
2022/01/22 09:59:06;;;;;;;21.27;5.07;;;;;;;;;;5115565;28;20395;-73
2022/01/22 10:01:35;;;;;;;16.98;3.85;;;;;;;;;;5115752;28;20051;-73
2022/01/22 10:04:03;;;;;;;22.02;4.07;;;;;;;;;;5115643;28;20051;-72
2022/01/22 10:06:31;;;;;;;15.15;3.40;;;;;;;;;;5115525;28;20056;-73
2022/01/22 10:09:23;;;;;;;18.95;4.05;;;;;;;;;;5115350;28;20087;-74
2022/01/22 10:12:06;;;;;;;16.48;3.63;;;;;;;;;;5116121;28;20054;-72
2022/01/22 10:14:32;;;;;;;17.88;3.88;;;;;;;;;;5115532;28;20467;-73
2022/01/22 10:16:58;;;;;;;15.73;3.75;;;;;;;;;;5115812;28;20458;-76
2022/01/22 10:19:24;;;;;;;15.73;4.40;;;;;;;;;;5097631;28;20044;-74
2022/01/22 10:21:50;;;;;;;;;;;;;;;;;;5097435;28;20051;-74
2022/01/22 10:24:22;;;;;;;18.90;3.95;;;;;;;;;;5115735;28;19923;-75
2022/01/22 10:26:48;;;;;;;28.67;4.47;;;;;;;;;;5096934;28;20058;-75
2022/01/22 10:29:21;;;;;;;21.33;4.47;;;;;;;;;;5087468;28;20063;-75
2022/01/22 10:31:47;;;;;;;17.42;3.95;;;;;;;;;;5074091;28;20052;-74
2022/01/22 10:34:13;;;;;;;16.52;3.80;;;;;;;;;;5073989;28;20045;-76
2022/01/22 10:36:40;;;;;;;17.27;4.05;;;;;;;;;;5074058;28;20404;-75
2022/01/22 10:39:09;;;;;;;18.00;4.05;;;;;;;;;;5074543;28;20048;-76
2022/01/22 10:41:40;;;;;;;15.98;3.83;;;;;;;;;;5074522;28;20049;-76
2022/01/22 10:44:09;;;;;;;24.33;4.75;;;;;;;;;;5074939;28;20044;-77
2022/01/22 10:46:51;;;;;;;21.63;3.95;;;;;;;;;;5074408;28;20123;-76
2022/01/22 10:49:24;;;;;;;15.70;4.28;;;;;;;;;;5074198;28;20061;-76
2022/01/22 10:52:00;;;;;;;18.95;5.35;;;;;;;;;;5073604;28;20122;-76
2022/01/22 10:54:28;;;;;;;19.92;5.45;;;;;;;;;;5073971;28;20056;-76
2022/01/22 10:56:55;;;;;;;21.30;4.95;;;;;;;;;;5073907;28;20049;-76
2022/01/22 10:59:22;;;;;;;20.08;5.50;;;;;;;;;;5073880;28;20044;-75
2022/01/22 11:01:59;;;;;;;27.27;6.90;;;;;;;;;;5074531;28;20044;-76
2022/01/22 11:04:29;;;;;;;22.48;5.88;;;;;;;;;;5073752;28;20084;-75
2022/01/22 11:06:59;;;;;;;23.40;5.80;;;;;;;;;;5056785;28;20380;-75
2022/01/22 11:09:26;;;;;;;18.42;4.85;;;;;;;;;;5074046;28;20060;-76
2022/01/22 11:11:53;;;;;;;24.10;5.00;;;;;;;;;;5073816;28;20060;-76
2022/01/22 11:14:20;;;;;;;22.75;7.20;;;;;;;;;;5072204;28;20047;-76
2022/01/22 11:16:47;;;;;;;25.30;11.20;;;;;;;;;;5055783;28;20060;-75
2022/01/22 11:19:15;;;;;;;21.30;6.28;;;;;;;;;;5055690;28;20052;-76
2022/01/22 11:21:44;;;;;;;28.77;8.05;;;;;;;;;;5072668;28;20107;-76
2022/01/22 11:24:17;;;;;;;19.40;6.07;;;;;;;;;;5073380;28;20468;-76
2022/01/22 11:26:45;;;;;;;21.70;8.15;;;;;;;;;;5073643;28;20106;-76
2022/01/22 11:29:13;;;;;;;20.83;5.88;;;;;;;;;;5083176;28;20056;-76
2022/01/22 11:31:39;;;;;;;30.33;7.40;;;;;;;;;;5113807;28;20142;-75
2022/01/22 11:34:06;;;;;;;29.92;8.43;;;;;;;;;;5114442;28;20058;-77
2022/01/22 11:36:32;;;;;;;;;;;;;;;;;;5096337;28;20043;-76
2022/01/22 11:38:59;;;;;;;23.55;6.05;;;;;;;;;;5114095;28;20309;-75
2022/01/22 11:41:25;;;;;;;34.85;9.95;;;;;;;;;;5095535;28;20039;-75
2022/01/22 11:44:04;;;;;;;28.48;5.95;;;;;;;;;;5113509;28;20036;-74
2022/01/22 11:46:34;;;;;;;37.85;8.25;;;;;;;;;;5113801;28;20051;-75
2022/01/22 11:49:18;;;;;;;27.10;6.38;;;;;;;;;;5095621;28;20051;-76
2022/01/22 11:51:48;;;;;;;25.50;5.75;;;;;;;;;;5113325;28;20475;-75
2022/01/22 11:54:15;;;;;;;22.35;6.18;;;;;;;;;;5113271;28;20048;-76
2022/01/22 11:56:42;;;;;;;31.35;6.07;;;;;;;;;;5113479;28;20039;-74
2022/01/22 11:59:22;;;;;;;20.33;5.22;;;;;;;;;;5113326;28;20047;-75
2022/01/22 12:01:52;;;;;;;26.75;7.00;;;;;;;;;;5113217;28;20483;-73
2022/01/22 12:04:22;;;;;;;24.52;5.50;;;;;;;;;;5113141;28;20051;-76
2022/01/22 12:07:03;;;;;;;23.92;6.13;;;;;;;;;;5112891;28;20456;-75
2022/01/22 12:09:36;;;;;;;24.23;6.07;;;;;;;;;;5095319;28;20083;-75
2022/01/22 12:15:07;;;;;;;22.23;6.22;;;;;;;;;;5113260;28;20131;-74
2022/01/22 12:17:59;;;;;;;24.33;6.78;;;;;;;;;;5113241;28;20051;-69
2022/01/22 12:21:30;;;;;;;25.83;8.15;;;;;;;;;;5113363;28;20441;-71
2022/01/22 12:23:39;;;;;;;24.23;8.18;;;;;;;;;;5110885;28;20070;-73
2022/01/22 12:26:05;;;;;;;28.23;7.75;;;;;;;;;;5081454;28;20044;-71
2022/01/22 12:28:39;;;;;;;28.40;6.80;;;;;;;;;;5094606;28;20057;-71
2022/01/22 12:31:20;;;;;;;33.00;9.70;;;;;;;;;;5113398;28;20055;-71
2022/01/22 12:33:53;;;;;;;32.92;8.88;;;;;;;;;;5112929;28;20039;-71
2022/01/22 12:36:35;;;;;;;28.00;8.93;;;;;;;;;;5112609;28;20200;-71
2022/01/22 12:39:07;;;;;;;28.10;7.97;;;;;;;;;;5113235;28;20044;-71
2022/01/22 12:44:04;;;;;;;31.20;8.10;;;;;;;;;;5112129;28;20459;-72
2022/01/22 12:46:30;;;;;;;26.23;8.85;;;;;;;;;;5111923;28;20098;-72
2022/01/22 12:48:57;;;;;;;28.98;9.02;;;;;;;;;;5112295;28;20043;-73
2022/01/22 12:51:23;;;;;;;;;;;;;;;;;;5111650;28;20043;-75
2022/01/22 12:53:49;;;;;;;25.98;8.35;;;;;;;;;;5112720;28;19923;-73
2022/01/22 12:57:04;;;;;;;29.85;8.30;;;;;;;;;;5112838;28;20044;-74
2022/01/22 12:59:11;;;;;;;30.35;8.38;;;;;;;;;;5105137;28;20073;-74
2022/01/22 13:01:43;;;;;;;26.17;7.93;;;;;;;;;;5112489;28;20463;-72
2022/01/22 13:04:09;;;;;;;20.25;6.25;;;;;;;;;;5112575;28;20036;-73
2022/01/22 13:06:39;;;;;;;25.42;7.20;;;;;;;;;;5112038;28;20482;-72
2022/01/22 13:09:05;;;;;;;24.50;6.68;;;;;;;;;;5112167;28;20047;-72
2022/01/22 13:11:32;;;;;;;22.52;6.68;;;;;;;;;;5112035;28;20479;-73
2022/01/22 13:14:08;;;;;;;23.45;6.85;;;;;;;;;;5112072;28;20051;-74
2022/01/22 13:16:34;;;;;;;20.80;6.70;;;;;;;;;;5111913;28;20043;-71
2022/01/22 13:19:00;;;;;;;19.40;5.85;;;;;;;;;;5110820;28;20043;-72
2022/01/22 13:21:30;;;;;;;21.95;5.40;;;;;;;;;;5111779;28;20051;-73
2022/01/22 13:24:05;;;;;;;22.60;6.28;;;;;;;;;;5093766;28;20141;-75
2022/01/22 13:26:44;;;;;;;16.23;5.72;;;;;;;;;;5111543;28;20059;-76
2022/01/22 13:29:22;;;;;;;19.08;5.00;;;;;;;;;;5111793;28;20063;-74
2022/01/22 13:32:24;;;;;;;21.80;5.32;;;;;;;;;;5111899;28;20639;-74
2022/01/22 13:37:54;;;;;;;21.17;5.57;;;;;;;;;;5111426;28;20138;-74
2022/01/22 13:40:31;;;;;;;22.60;5.28;;;;;;;;;;5111506;28;20047;-73
2022/01/22 13:48:31;;;;;;;24.42;5.43;;;;;;;;;;5111696;28;20063;-77
2022/01/22 13:50:58;;;;;;;28.20;5.55;;;;;;;;;;5112154;28;20135;-77
2022/01/22 13:53:24;;;;;;;22.70;5.57;;;;;;;;;;5111660;28;20047;-77
2022/01/22 13:55:57;;;;;;;32.72;6.35;;;;;;;;;;5111210;28;20498;-76
2022/01/22 13:58:23;;;;;;;19.23;4.95;;;;;;;;;;5111577;28;20059;-78
2022/01/22 14:00:49;;;;;;;24.15;4.78;;;;;;;;;;5111560;28;20043;-76
2022/01/22 14:03:29;;;;;;;16.08;5.03;;;;;;;;;;5111575;28;20104;-75
2022/01/22 14:05:55;;;;;;;20.92;4.55;;;;;;;;;;5093637;28;20048;-76
2022/01/22 14:08:43;;;;;;;23.23;5.03;;;;;;;;;;5111515;28;20044;-78
2022/01/22 14:11:13;;;;;;;18.92;4.72;;;;;;;;;;5113884;28;20138;-81
2022/01/22 14:13:40;;;;;;;18.17;4.57;;;;;;;;;;5093667;28;20193;-78
2022/01/22 14:16:22;;;;;;;21.52;4.47;;;;;;;;;;5111405;28;20079;-77
2022/01/22 14:18:51;;;;;;;17.60;4.80;;;;;;;;;;5111477;28;20433;-76
2022/01/22 14:21:22;;;;;;;19.85;4.93;;;;;;;;;;5111419;28;20058;-76
2022/01/22 14:23:52;;;;;;;23.85;5.00;;;;;;;;;;5111289;28;20047;-77
2022/01/22 14:26:31;;;;;;;20.85;4.05;;;;;;;;;;5113763;28;20044;-77
2022/01/22 14:29:04;;;;;;;20.02;4.03;;;;;;;;;;5115050;28;20060;-78
2022/01/22 14:31:43;;;;;;;18.55;4.05;;;;;;;;;;5115490;28;20187;-79
2022/01/22 14:34:11;;;;;;;16.15;3.55;;;;;;;;;;5096551;28;20140;-76
2022/01/22 14:36:47;;;;;;;22.98;3.75;;;;;;;;;;5114654;28;20055;-80
2022/01/22 14:44:37;;;;;;;13.25;3.88;;;;;;;;;;5114682;28;20051;-77
2022/01/22 14:47:14;;;;;;;19.20;3.78;;;;;;;;;;5114767;28;20058;-79
2022/01/22 14:49:51;;;;;;;18.95;3.60;;;;;;;;;;5096506;28;20093;-78
2022/01/22 14:52:17;;;;;;;;;;;;;;;;;;5115593;28;20186;-79
2022/01/22 14:54:44;;;;;;;14.07;3.72;;;;;;;;;;5114201;28;20038;-76
2022/01/22 14:57:11;;;;;;;18.15;3.72;;;;;;;;;;5114164;28;20624;-78
2022/01/22 14:59:38;;;;;;;13.88;3.78;;;;;;;;;;5114528;28;20071;-76
2022/01/22 15:02:05;;;;;;;13.38;3.30;;;;;;;;;;5113993;28;20047;-77
2022/01/22 15:04:32;;;;;;;15.43;4.45;;;;;;;;;;5096040;28;20459;-78
2022/01/22 15:07:00;;;;;;;14.38;4.00;;;;;;;;;;5130050;27;20051;-78
2022/01/22 15:09:26;;;;;;;18.42;3.70;;;;;;;;;;5114160;28;20105;-77
2022/01/22 15:11:53;;;;;;;17.65;4.05;;;;;;;;;;5114063;28;20430;-77
2022/01/22 15:14:19;;;;;;;16.23;3.45;;;;;;;;;;5113973;28;20083;-77
2022/01/22 15:19:14;;;;;;;17.85;3.85;;;;;;;;;;5114136;28;20057;-77
2022/01/22 15:21:42;;;;;;;15.57;3.78;;;;;;;;;;5095720;28;20499;-81
2022/01/22 15:24:08;;;;;;;21.88;4.22;;;;;;;;;;5095988;28;20451;-77
2022/01/22 15:26:34;;;;;;;;;;;;;;;;;;5131011;27;20055;-78
2022/01/22 15:29:00;;;;;;;17.73;3.97;;;;;;;;;;5093328;28;20288;-76
2022/01/22 15:31:38;;;;;;;;;;;;;;;;;;5114071;28;20059;-74
2022/01/22 15:34:13;;;;;;;14.52;3.90;;;;;;;;;;5114014;28;19920;-74
2022/01/22 15:36:42;;;;;;;16.33;3.63;;;;;;;;;;5113573;28;20059;-77
2022/01/22 15:39:09;;;;;;;19.35;3.83;;;;;;;;;;5113418;28;20043;-80
2022/01/22 15:41:37;;;;;;;15.60;3.30;;;;;;;;;;5129533;27;20044;-79
2022/01/22 15:44:07;;;;;;;14.48;2.75;;;;;;;;;;5113984;28;20047;-79
2022/01/22 15:46:33;;;;;;;11.88;2.90;;;;;;;;;;5113573;27;20083;-77
2022/01/22 15:49:00;;;;;;;12.68;2.88;;;;;;;;;;5113495;28;20043;-74
2022/01/22 15:51:27;;;;;;;10.43;2.83;;;;;;;;;;5113487;28;20126;-75
2022/01/22 15:53:53;;;;;;;13.90;3.15;;;;;;;;;;5113957;28;20052;-75
2022/01/22 15:56:19;;;;;;;15.52;3.42;;;;;;;;;;5096280;28;20083;-75
2022/01/22 15:58:45;;;;;;;14.68;2.88;;;;;;;;;;5114377;28;20478;-76
2022/01/22 16:01:13;;;;;;;14.25;3.60;;;;;;;;;;5114490;28;20376;-76
2022/01/22 16:03:43;;;;;;;17.80;3.97;;;;;;;;;;5131169;27;20051;-78
2022/01/22 16:06:18;;;;;;;17.25;3.75;;;;;;;;;;5096651;28;20104;-77
2022/01/22 16:08:48;;;;;;;15.18;3.88;;;;;;;;;;5114611;28;20122;-78
2022/01/22 16:11:14;;;;;;;21.52;3.70;;;;;;;;;;5114546;28;20043;-79
2022/01/22 16:13:44;;;;;;;;;;;;;;;;;;5096760;28;20502;-78
2022/01/22 16:16:10;;;;;;;12.45;3.28;;;;;;;;;;5115238;28;19919;-76
2022/01/22 16:18:36;;;;;;;17.77;3.83;;;;;;;;;;5096301;28;20388;-74
2022/01/22 16:21:02;;;;;;;;;;;;;;;;;;5115493;28;20459;-75
2022/01/22 16:23:28;;;;;;;14.88;3.83;;;;;;;;;;5114286;28;19919;-77
2022/01/22 16:25:55;;;;;;;18.63;3.83;;;;;;;;;;5114677;28;20050;-76
2022/01/22 16:28:21;;;;;;;12.35;3.35;;;;;;;;;;5130310;27;20360;-77
2022/01/22 16:30:47;;;;;;;18.50;4.20;;;;;;;;;;5112104;28;20390;-76
2022/01/22 16:33:15;;;;;;;15.82;3.83;;;;;;;;;;5130447;27;20058;-75
2022/01/22 16:35:41;;;;;;;18.70;3.78;;;;;;;;;;5114085;28;20534;-76
2022/01/22 16:38:07;;;;;;;19.42;3.63;;;;;;;;;;5096128;28;20138;-78
2022/01/22 16:40:33;;;;;;;15.55;3.63;;;;;;;;;;5095906;28;20488;-75